sensor_id;sensor_type;location;lat;lon;timestamp;P1;durP1;ratioP1;P2;durP2;ratioP2
47219;SDS011;32961;51.936;4.788;2023-06-14T00:02:06;6.10;;;2.88;;
47219;SDS011;32961;51.936;4.788;2023-06-14T00:04:35;7.75;;;3.20;;
47219;SDS011;32961;51.936;4.788;2023-06-14T00:07:06;6.43;;;2.92;;
47219;SDS011;32961;51.936;4.788;2023-06-14T00:09:37;5.68;;;3.00;;
47219;SDS011;32961;51.936;4.788;2023-06-14T00:12:05;7.22;;;3.38;;
47219;SDS011;32961;51.936;4.788;2023-06-14T00:14:35;6.75;;;2.50;;
47219;SDS011;32961;51.936;4.788;2023-06-14T00:17:03;6.93;;;3.20;;
47219;SDS011;32961;51.936;4.788;2023-06-14T00:19:33;8.38;;;3.08;;
47219;SDS011;32961;51.936;4.788;2023-06-14T00:22:03;6.90;;;3.40;;
47219;SDS011;32961;51.936;4.788;2023-06-14T00:24:32;7.10;;;3.03;;
47219;SDS011;32961;51.936;4.788;2023-06-14T00:27:00;8.45;;;3.05;;
47219;SDS011;32961;51.936;4.788;2023-06-14T00:29:28;6.03;;;3.10;;
47219;SDS011;32961;51.936;4.788;2023-06-14T00:31:56;5.45;;;2.80;;
47219;SDS011;32961;51.936;4.788;2023-06-14T00:34:24;7.95;;;3.25;;
47219;SDS011;32961;51.936;4.788;2023-06-14T00:36:51;7.32;;;3.10;;
47219;SDS011;32961;51.936;4.788;2023-06-14T00:39:19;13.98;;;3.42;;
47219;SDS011;32961;51.936;4.788;2023-06-14T00:41:48;12.60;;;3.65;;
47219;SDS011;32961;51.936;4.788;2023-06-14T00:44:16;22.73;;;3.80;;
47219;SDS011;32961;51.936;4.788;2023-06-14T00:46:45;9.38;;;3.15;;
47219;SDS011;32961;51.936;4.788;2023-06-14T00:49:13;4.15;;;2.65;;
47219;SDS011;32961;51.936;4.788;2023-06-14T00:51:42;8.15;;;3.85;;
47219;SDS011;32961;51.936;4.788;2023-06-14T00:54:10;8.07;;;3.50;;
47219;SDS011;32961;51.936;4.788;2023-06-14T00:56:38;9.95;;;3.42;;
47219;SDS011;32961;51.936;4.788;2023-06-14T00:59:08;9.48;;;3.10;;
47219;SDS011;32961;51.936;4.788;2023-06-14T01:01:37;8.20;;;3.38;;
47219;SDS011;32961;51.936;4.788;2023-06-14T01:04:05;5.95;;;2.85;;
47219;SDS011;32961;51.936;4.788;2023-06-14T01:06:33;16.10;;;3.75;;
47219;SDS011;32961;51.936;4.788;2023-06-14T01:09:09;9.60;;;3.35;;
47219;SDS011;32961;51.936;4.788;2023-06-14T01:11:47;6.88;;;2.65;;
47219;SDS011;32961;51.936;4.788;2023-06-14T01:14:23;6.68;;;3.35;;
47219;SDS011;32961;51.936;4.788;2023-06-14T01:16:52;9.23;;;3.40;;
47219;SDS011;32961;51.936;4.788;2023-06-14T01:19:21;6.38;;;3.17;;
47219;SDS011;32961;51.936;4.788;2023-06-14T01:21:52;10.45;;;3.35;;
47219;SDS011;32961;51.936;4.788;2023-06-14T01:24:22;8.52;;;3.08;;
47219;SDS011;32961;51.936;4.788;2023-06-14T01:26:52;8.02;;;2.63;;
47219;SDS011;32961;51.936;4.788;2023-06-14T01:29:22;15.02;;;3.20;;
47219;SDS011;32961;51.936;4.788;2023-06-14T01:31:51;10.30;;;3.05;;
47219;SDS011;32961;51.936;4.788;2023-06-14T01:34:21;9.30;;;3.10;;
47219;SDS011;32961;51.936;4.788;2023-06-14T01:36:49;7.00;;;3.08;;
47219;SDS011;32961;51.936;4.788;2023-06-14T01:39:18;6.43;;;3.10;;
47219;SDS011;32961;51.936;4.788;2023-06-14T01:41:47;11.93;;;3.38;;
47219;SDS011;32961;51.936;4.788;2023-06-14T01:44:17;9.38;;;2.85;;
47219;SDS011;32961;51.936;4.788;2023-06-14T01:46:46;6.05;;;3.05;;
47219;SDS011;32961;51.936;4.788;2023-06-14T01:49:15;7.18;;;3.30;;
47219;SDS011;32961;51.936;4.788;2023-06-14T01:51:43;6.07;;;3.33;;
47219;SDS011;32961;51.936;4.788;2023-06-14T01:54:11;5.63;;;2.90;;
47219;SDS011;32961;51.936;4.788;2023-06-14T01:56:39;4.60;;;3.13;;
47219;SDS011;32961;51.936;4.788;2023-06-14T01:59:08;6.85;;;3.55;;
47219;SDS011;32961;51.936;4.788;2023-06-14T02:01:36;7.88;;;3.08;;
47219;SDS011;32961;51.936;4.788;2023-06-14T02:04:04;11.15;;;3.05;;
47219;SDS011;32961;51.936;4.788;2023-06-14T02:06:31;12.48;;;3.53;;
47219;SDS011;32961;51.936;4.788;2023-06-14T02:09:00;9.63;;;3.38;;
47219;SDS011;32961;51.936;4.788;2023-06-14T02:11:29;11.15;;;3.55;;
47219;SDS011;32961;51.936;4.788;2023-06-14T02:13:56;10.32;;;3.38;;
47219;SDS011;32961;51.936;4.788;2023-06-14T02:16:27;9.02;;;3.50;;
47219;SDS011;32961;51.936;4.788;2023-06-14T02:18:56;10.45;;;3.47;;
47219;SDS011;32961;51.936;4.788;2023-06-14T02:21:24;7.15;;;3.15;;
47219;SDS011;32961;51.936;4.788;2023-06-14T02:23:52;5.88;;;3.20;;
47219;SDS011;32961;51.936;4.788;2023-06-14T02:26:19;9.77;;;2.67;;
47219;SDS011;32961;51.936;4.788;2023-06-14T02:28:48;8.68;;;2.83;;
47219;SDS011;32961;51.936;4.788;2023-06-14T02:31:16;9.02;;;4.22;;
47219;SDS011;32961;51.936;4.788;2023-06-14T02:33:45;7.55;;;2.90;;
47219;SDS011;32961;51.936;4.788;2023-06-14T02:36:13;13.80;;;3.53;;
47219;SDS011;32961;51.936;4.788;2023-06-14T02:38:41;3.45;;;2.80;;
47219;SDS011;32961;51.936;4.788;2023-06-14T02:41:09;6.75;;;2.80;;
47219;SDS011;32961;51.936;4.788;2023-06-14T02:43:37;8.43;;;2.92;;
47219;SDS011;32961;51.936;4.788;2023-06-14T02:46:04;12.23;;;3.05;;
47219;SDS011;32961;51.936;4.788;2023-06-14T02:48:33;10.82;;;3.20;;
47219;SDS011;32961;51.936;4.788;2023-06-14T02:51:02;7.15;;;3.10;;
47219;SDS011;32961;51.936;4.788;2023-06-14T02:53:30;6.55;;;2.88;;
47219;SDS011;32961;51.936;4.788;2023-06-14T02:55:58;11.90;;;3.22;;
47219;SDS011;32961;51.936;4.788;2023-06-14T02:58:26;16.92;;;3.85;;
47219;SDS011;32961;51.936;4.788;2023-06-14T03:00:53;10.85;;;3.25;;
47219;SDS011;32961;51.936;4.788;2023-06-14T03:03:21;8.60;;;2.83;;
47219;SDS011;32961;51.936;4.788;2023-06-14T03:05:51;7.78;;;3.25;;
47219;SDS011;32961;51.936;4.788;2023-06-14T03:08:22;10.73;;;3.58;;
47219;SDS011;32961;51.936;4.788;2023-06-14T03:10:53;12.37;;;3.10;;
47219;SDS011;32961;51.936;4.788;2023-06-14T03:13:22;6.97;;;2.90;;
47219;SDS011;32961;51.936;4.788;2023-06-14T03:15:50;9.13;;;3.30;;
47219;SDS011;32961;51.936;4.788;2023-06-14T03:18:18;10.15;;;3.45;;
47219;SDS011;32961;51.936;4.788;2023-06-14T03:20:53;5.80;;;3.35;;
47219;SDS011;32961;51.936;4.788;2023-06-14T03:23:24;6.75;;;3.50;;
47219;SDS011;32961;51.936;4.788;2023-06-14T03:25:53;12.77;;;3.72;;
47219;SDS011;32961;51.936;4.788;2023-06-14T03:28:21;12.40;;;4.13;;
47219;SDS011;32961;51.936;4.788;2023-06-14T03:30:48;8.20;;;3.10;;
47219;SDS011;32961;51.936;4.788;2023-06-14T03:33:16;6.75;;;3.20;;
47219;SDS011;32961;51.936;4.788;2023-06-14T03:35:44;13.02;;;3.80;;
47219;SDS011;32961;51.936;4.788;2023-06-14T03:38:12;7.80;;;3.17;;
47219;SDS011;32961;51.936;4.788;2023-06-14T03:40:41;8.65;;;3.50;;
47219;SDS011;32961;51.936;4.788;2023-06-14T03:43:09;13.63;;;3.53;;
47219;SDS011;32961;51.936;4.788;2023-06-14T03:45:37;10.10;;;3.55;;
47219;SDS011;32961;51.936;4.788;2023-06-14T03:48:04;15.90;;;3.75;;
47219;SDS011;32961;51.936;4.788;2023-06-14T03:50:35;9.32;;;4.07;;
47219;SDS011;32961;51.936;4.788;2023-06-14T03:53:04;15.65;;;3.72;;
47219;SDS011;32961;51.936;4.788;2023-06-14T03:55:32;10.68;;;3.40;;
47219;SDS011;32961;51.936;4.788;2023-06-14T03:58:04;6.70;;;3.15;;
47219;SDS011;32961;51.936;4.788;2023-06-14T04:00:32;6.20;;;3.70;;
47219;SDS011;32961;51.936;4.788;2023-06-14T04:03:00;8.95;;;3.13;;
47219;SDS011;32961;51.936;4.788;2023-06-14T04:05:30;10.52;;;3.00;;
47219;SDS011;32961;51.936;4.788;2023-06-14T04:07:58;6.63;;;2.95;;
47219;SDS011;32961;51.936;4.788;2023-06-14T04:10:27;7.78;;;3.13;;
47219;SDS011;32961;51.936;4.788;2023-06-14T04:12:55;5.85;;;2.90;;
47219;SDS011;32961;51.936;4.788;2023-06-14T04:15:24;13.55;;;3.15;;
47219;SDS011;32961;51.936;4.788;2023-06-14T04:17:54;10.07;;;2.97;;
47219;SDS011;32961;51.936;4.788;2023-06-14T04:20:23;7.80;;;2.97;;
47219;SDS011;32961;51.936;4.788;2023-06-14T04:22:52;10.82;;;3.13;;
47219;SDS011;32961;51.936;4.788;2023-06-14T04:25:20;6.40;;;2.70;;
47219;SDS011;32961;51.936;4.788;2023-06-14T04:27:49;8.25;;;2.67;;
47219;SDS011;32961;51.936;4.788;2023-06-14T04:30:18;9.48;;;3.28;;
47219;SDS011;32961;51.936;4.788;2023-06-14T04:32:49;6.15;;;2.42;;
47219;SDS011;32961;51.936;4.788;2023-06-14T04:35:20;7.13;;;3.28;;
47219;SDS011;32961;51.936;4.788;2023-06-14T04:37:50;11.00;;;3.17;;
47219;SDS011;32961;51.936;4.788;2023-06-14T04:40:19;8.15;;;3.08;;
47219;SDS011;32961;51.936;4.788;2023-06-14T04:42:47;10.90;;;3.15;;
47219;SDS011;32961;51.936;4.788;2023-06-14T04:45:17;9.30;;;3.10;;
47219;SDS011;32961;51.936;4.788;2023-06-14T04:47:44;6.05;;;3.03;;
47219;SDS011;32961;51.936;4.788;2023-06-14T04:50:14;9.45;;;3.22;;
47219;SDS011;32961;51.936;4.788;2023-06-14T04:52:44;9.77;;;2.78;;
47219;SDS011;32961;51.936;4.788;2023-06-14T04:55:12;12.65;;;3.22;;
47219;SDS011;32961;51.936;4.788;2023-06-14T04:57:40;10.57;;;3.08;;
47219;SDS011;32961;51.936;4.788;2023-06-14T05:00:09;11.40;;;3.10;;
47219;SDS011;32961;51.936;4.788;2023-06-14T05:02:38;5.30;;;2.63;;
47219;SDS011;32961;51.936;4.788;2023-06-14T05:05:07;9.15;;;2.95;;
47219;SDS011;32961;51.936;4.788;2023-06-14T05:07:36;7.22;;;2.97;;
47219;SDS011;32961;51.936;4.788;2023-06-14T05:10:08;12.77;;;2.78;;
47219;SDS011;32961;51.936;4.788;2023-06-14T05:12:36;5.88;;;2.83;;
47219;SDS011;32961;51.936;4.788;2023-06-14T05:15:04;13.68;;;3.08;;
47219;SDS011;32961;51.936;4.788;2023-06-14T05:17:35;13.73;;;3.05;;
47219;SDS011;32961;51.936;4.788;2023-06-14T05:20:03;5.85;;;3.25;;
47219;SDS011;32961;51.936;4.788;2023-06-14T05:22:32;8.85;;;2.63;;
47219;SDS011;32961;51.936;4.788;2023-06-14T05:25:02;8.23;;;3.00;;
47219;SDS011;32961;51.936;4.788;2023-06-14T05:27:30;8.48;;;3.00;;
47219;SDS011;32961;51.936;4.788;2023-06-14T05:29:58;12.77;;;2.90;;
47219;SDS011;32961;51.936;4.788;2023-06-14T05:32:26;6.88;;;2.70;;
47219;SDS011;32961;51.936;4.788;2023-06-14T05:34:54;13.88;;;3.10;;
47219;SDS011;32961;51.936;4.788;2023-06-14T05:37:22;13.13;;;3.33;;
47219;SDS011;32961;51.936;4.788;2023-06-14T05:39:49;8.02;;;2.83;;
47219;SDS011;32961;51.936;4.788;2023-06-14T05:42:19;11.57;;;3.60;;
47219;SDS011;32961;51.936;4.788;2023-06-14T05:44:47;8.85;;;3.65;;
47219;SDS011;32961;51.936;4.788;2023-06-14T05:47:14;8.38;;;2.90;;
47219;SDS011;32961;51.936;4.788;2023-06-14T05:49:42;9.13;;;3.10;;
47219;SDS011;32961;51.936;4.788;2023-06-14T05:52:10;7.30;;;3.13;;
47219;SDS011;32961;51.936;4.788;2023-06-14T05:54:39;8.35;;;2.80;;
47219;SDS011;32961;51.936;4.788;2023-06-14T05:57:07;7.82;;;2.78;;
47219;SDS011;32961;51.936;4.788;2023-06-14T05:59:36;6.35;;;3.13;;
47219;SDS011;32961;51.936;4.788;2023-06-14T06:02:04;5.30;;;2.70;;
47219;SDS011;32961;51.936;4.788;2023-06-14T06:04:33;4.72;;;2.47;;
47219;SDS011;32961;51.936;4.788;2023-06-14T06:07:01;7.68;;;2.95;;
47219;SDS011;32961;51.936;4.788;2023-06-14T06:09:29;4.82;;;2.72;;
47219;SDS011;32961;51.936;4.788;2023-06-14T06:11:56;6.10;;;2.40;;
47219;SDS011;32961;51.936;4.788;2023-06-14T06:14:24;6.68;;;2.63;;
47219;SDS011;32961;51.936;4.788;2023-06-14T06:16:53;8.82;;;2.83;;
47219;SDS011;32961;51.936;4.788;2023-06-14T06:19:21;7.13;;;3.03;;
47219;SDS011;32961;51.936;4.788;2023-06-14T06:21:49;11.32;;;2.80;;
47219;SDS011;32961;51.936;4.788;2023-06-14T06:24:17;12.25;;;3.38;;
47219;SDS011;32961;51.936;4.788;2023-06-14T06:26:45;9.88;;;2.97;;
47219;SDS011;32961;51.936;4.788;2023-06-14T06:29:13;8.38;;;3.17;;
47219;SDS011;32961;51.936;4.788;2023-06-14T06:31:41;28.95;;;5.15;;
47219;SDS011;32961;51.936;4.788;2023-06-14T06:34:10;17.50;;;3.17;;
47219;SDS011;32961;51.936;4.788;2023-06-14T06:36:38;20.77;;;3.50;;
47219;SDS011;32961;51.936;4.788;2023-06-14T06:39:06;15.07;;;3.85;;
47219;SDS011;32961;51.936;4.788;2023-06-14T06:41:37;8.93;;;2.53;;
47219;SDS011;32961;51.936;4.788;2023-06-14T06:44:06;7.05;;;2.90;;
47219;SDS011;32961;51.936;4.788;2023-06-14T06:46:34;11.93;;;3.20;;
47219;SDS011;32961;51.936;4.788;2023-06-14T06:49:06;10.15;;;2.88;;
47219;SDS011;32961;51.936;4.788;2023-06-14T06:51:35;7.80;;;2.92;;
47219;SDS011;32961;51.936;4.788;2023-06-14T06:54:04;6.65;;;2.55;;
47219;SDS011;32961;51.936;4.788;2023-06-14T06:56:32;12.55;;;3.63;;
47219;SDS011;32961;51.936;4.788;2023-06-14T06:59:00;10.27;;;2.60;;
47219;SDS011;32961;51.936;4.788;2023-06-14T07:01:27;12.43;;;2.97;;
47219;SDS011;32961;51.936;4.788;2023-06-14T07:03:56;8.18;;;3.13;;
47219;SDS011;32961;51.936;4.788;2023-06-14T07:06:24;8.07;;;2.70;;
47219;SDS011;32961;51.936;4.788;2023-06-14T07:08:54;6.10;;;2.95;;
47219;SDS011;32961;51.936;4.788;2023-06-14T07:11:27;9.00;;;3.83;;
47219;SDS011;32961;51.936;4.788;2023-06-14T07:13:55;7.10;;;3.35;;
47219;SDS011;32961;51.936;4.788;2023-06-14T07:16:23;7.00;;;3.00;;
47219;SDS011;32961;51.936;4.788;2023-06-14T07:18:52;5.35;;;2.70;;
47219;SDS011;32961;51.936;4.788;2023-06-14T07:21:19;7.18;;;2.78;;
47219;SDS011;32961;51.936;4.788;2023-06-14T07:23:48;7.30;;;2.70;;
47219;SDS011;32961;51.936;4.788;2023-06-14T07:26:20;8.32;;;2.90;;
47219;SDS011;32961;51.936;4.788;2023-06-14T07:28:49;8.32;;;2.63;;
47219;SDS011;32961;51.936;4.788;2023-06-14T07:31:16;11.60;;;2.75;;
47219;SDS011;32961;51.936;4.788;2023-06-14T07:33:45;4.63;;;2.83;;
47219;SDS011;32961;51.936;4.788;2023-06-14T07:36:13;5.25;;;2.15;;
47219;SDS011;32961;51.936;4.788;2023-06-14T07:38:41;8.93;;;2.70;;
47219;SDS011;32961;51.936;4.788;2023-06-14T07:41:09;8.07;;;2.70;;
47219;SDS011;32961;51.936;4.788;2023-06-14T07:43:38;11.43;;;2.63;;
47219;SDS011;32961;51.936;4.788;2023-06-14T07:46:06;9.50;;;2.55;;
47219;SDS011;32961;51.936;4.788;2023-06-14T07:48:36;4.30;;;2.70;;
47219;SDS011;32961;51.936;4.788;2023-06-14T07:51:04;14.95;;;2.80;;
47219;SDS011;32961;51.936;4.788;2023-06-14T07:53:32;8.57;;;2.83;;
47219;SDS011;32961;51.936;4.788;2023-06-14T07:55:59;7.72;;;2.55;;
47219;SDS011;32961;51.936;4.788;2023-06-14T07:58:29;4.72;;;3.13;;
47219;SDS011;32961;51.936;4.788;2023-06-14T08:00:58;5.22;;;2.80;;
47219;SDS011;32961;51.936;4.788;2023-06-14T08:03:27;8.30;;;2.40;;
47219;SDS011;32961;51.936;4.788;2023-06-14T08:05:56;11.45;;;2.53;;
47219;SDS011;32961;51.936;4.788;2023-06-14T08:08:24;11.88;;;2.95;;
47219;SDS011;32961;51.936;4.788;2023-06-14T08:10:52;8.32;;;2.80;;
47219;SDS011;32961;51.936;4.788;2023-06-14T08:13:20;6.45;;;2.70;;
47219;SDS011;32961;51.936;4.788;2023-06-14T08:15:48;6.28;;;2.90;;
47219;SDS011;32961;51.936;4.788;2023-06-14T08:18:17;7.03;;;2.72;;
47219;SDS011;32961;51.936;4.788;2023-06-14T08:20:45;15.35;;;2.83;;
47219;SDS011;32961;51.936;4.788;2023-06-14T08:23:13;14.98;;;3.33;;
47219;SDS011;32961;51.936;4.788;2023-06-14T08:25:42;4.85;;;2.55;;
47219;SDS011;32961;51.936;4.788;2023-06-14T08:28:09;9.43;;;2.63;;
47219;SDS011;32961;51.936;4.788;2023-06-14T08:30:37;5.50;;;2.53;;
47219;SDS011;32961;51.936;4.788;2023-06-14T08:33:05;12.25;;;3.08;;
47219;SDS011;32961;51.936;4.788;2023-06-14T08:35:44;10.25;;;2.40;;
47219;SDS011;32961;51.936;4.788;2023-06-14T08:38:12;11.23;;;2.60;;
47219;SDS011;32961;51.936;4.788;2023-06-14T08:40:40;4.70;;;2.35;;
47219;SDS011;32961;51.936;4.788;2023-06-14T08:43:09;7.95;;;2.85;;
47219;SDS011;32961;51.936;4.788;2023-06-14T08:45:37;12.32;;;2.97;;
47219;SDS011;32961;51.936;4.788;2023-06-14T08:48:05;7.72;;;2.40;;
47219;SDS011;32961;51.936;4.788;2023-06-14T08:50:35;5.95;;;2.60;;
47219;SDS011;32961;51.936;4.788;2023-06-14T08:53:09;7.78;;;2.63;;
47219;SDS011;32961;51.936;4.788;2023-06-14T08:55:45;11.98;;;2.35;;
47219;SDS011;32961;51.936;4.788;2023-06-14T08:58:14;11.15;;;2.88;;
47219;SDS011;32961;51.936;4.788;2023-06-14T09:00:42;6.00;;;2.25;;
47219;SDS011;32961;51.936;4.788;2023-06-14T09:03:11;8.63;;;2.80;;
47219;SDS011;32961;51.936;4.788;2023-06-14T09:05:41;10.90;;;2.58;;
47219;SDS011;32961;51.936;4.788;2023-06-14T09:08:11;6.78;;;2.72;;
47219;SDS011;32961;51.936;4.788;2023-06-14T09:10:39;10.18;;;2.40;;
47219;SDS011;32961;51.936;4.788;2023-06-14T09:13:08;4.30;;;2.22;;
47219;SDS011;32961;51.936;4.788;2023-06-14T09:15:36;4.60;;;1.90;;
47219;SDS011;32961;51.936;4.788;2023-06-14T09:18:03;11.25;;;2.00;;
47219;SDS011;32961;51.936;4.788;2023-06-14T09:20:32;8.80;;;2.45;;
47219;SDS011;32961;51.936;4.788;2023-06-14T09:23:00;7.70;;;2.10;;
47219;SDS011;32961;51.936;4.788;2023-06-14T09:25:30;6.63;;;2.20;;
47219;SDS011;32961;51.936;4.788;2023-06-14T09:28:00;6.25;;;1.90;;
47219;SDS011;32961;51.936;4.788;2023-06-14T09:30:28;6.95;;;2.10;;
47219;SDS011;32961;51.936;4.788;2023-06-14T09:32:56;7.40;;;2.10;;
47219;SDS011;32961;51.936;4.788;2023-06-14T09:35:27;5.53;;;2.00;;
47219;SDS011;32961;51.936;4.788;2023-06-14T09:37:56;4.10;;;1.60;;
47219;SDS011;32961;51.936;4.788;2023-06-14T09:40:24;5.05;;;1.70;;
47219;SDS011;32961;51.936;4.788;2023-06-14T09:42:53;7.63;;;2.00;;
47219;SDS011;32961;51.936;4.788;2023-06-14T09:45:24;7.37;;;1.70;;
47219;SDS011;32961;51.936;4.788;2023-06-14T09:47:56;2.35;;;1.60;;
47219;SDS011;32961;51.936;4.788;2023-06-14T09:50:28;7.32;;;1.95;;
47219;SDS011;32961;51.936;4.788;2023-06-14T09:52:56;6.13;;;2.30;;
47219;SDS011;32961;51.936;4.788;2023-06-14T09:55:30;6.30;;;2.13;;
47219;SDS011;32961;51.936;4.788;2023-06-14T09:57:59;9.38;;;1.80;;
47219;SDS011;32961;51.936;4.788;2023-06-14T10:00:33;4.38;;;1.80;;
47219;SDS011;32961;51.936;4.788;2023-06-14T10:03:03;4.13;;;2.00;;
47219;SDS011;32961;51.936;4.788;2023-06-14T10:05:36;3.80;;;1.85;;
47219;SDS011;32961;51.936;4.788;2023-06-14T10:08:05;5.82;;;1.75;;
47219;SDS011;32961;51.936;4.788;2023-06-14T10:10:38;7.90;;;1.70;;
47219;SDS011;32961;51.936;4.788;2023-06-14T10:13:08;4.30;;;1.58;;
47219;SDS011;32961;51.936;4.788;2023-06-14T10:15:38;3.45;;;1.48;;
47219;SDS011;32961;51.936;4.788;2023-06-14T10:18:14;5.50;;;1.75;;
47219;SDS011;32961;51.936;4.788;2023-06-14T10:20:50;4.72;;;1.73;;
47219;SDS011;32961;51.936;4.788;2023-06-14T10:23:24;3.45;;;1.70;;
47219;SDS011;32961;51.936;4.788;2023-06-14T10:25:55;5.63;;;2.10;;
47219;SDS011;32961;51.936;4.788;2023-06-14T10:28:27;6.45;;;2.03;;
47219;SDS011;32961;51.936;4.788;2023-06-14T10:31:06;4.43;;;1.70;;
47219;SDS011;32961;51.936;4.788;2023-06-14T10:33:35;2.63;;;1.50;;
47219;SDS011;32961;51.936;4.788;2023-06-14T10:36:09;5.10;;;1.50;;
47219;SDS011;32961;51.936;4.788;2023-06-14T10:38:56;2.00;;;1.45;;
47219;SDS011;32961;51.936;4.788;2023-06-14T10:41:26;2.83;;;1.40;;
47219;SDS011;32961;51.936;4.788;2023-06-14T10:47:20;4.25;;;1.70;;
47219;SDS011;32961;51.936;4.788;2023-06-14T10:49:53;9.00;;;2.00;;
47219;SDS011;32961;51.936;4.788;2023-06-14T10:52:25;3.97;;;1.70;;
47219;SDS011;32961;51.936;4.788;2023-06-14T10:57:43;5.95;;;1.50;;
47219;SDS011;32961;51.936;4.788;2023-06-14T11:00:20;2.33;;;1.40;;
47219;SDS011;32961;51.936;4.788;2023-06-14T11:02:56;2.17;;;1.23;;
47219;SDS011;32961;51.936;4.788;2023-06-14T11:05:42;4.38;;;1.48;;
47219;SDS011;32961;51.936;4.788;2023-06-14T11:08:26;2.60;;;1.42;;
47219;SDS011;32961;51.936;4.788;2023-06-14T11:11:00;3.47;;;1.47;;
47219;SDS011;32961;51.936;4.788;2023-06-14T11:13:30;2.78;;;1.40;;
47219;SDS011;32961;51.936;4.788;2023-06-14T11:15:59;6.07;;;1.50;;
47219;SDS011;32961;51.936;4.788;2023-06-14T11:18:28;3.80;;;1.40;;
47219;SDS011;32961;51.936;4.788;2023-06-14T11:20:56;3.42;;;1.42;;
47219;SDS011;32961;51.936;4.788;2023-06-14T11:23:23;2.55;;;1.17;;
47219;SDS011;32961;51.936;4.788;2023-06-14T11:25:51;4.88;;;1.48;;
47219;SDS011;32961;51.936;4.788;2023-06-14T11:28:21;1.42;;;1.20;;
47219;SDS011;32961;51.936;4.788;2023-06-14T11:31:00;3.33;;;1.50;;
47219;SDS011;32961;51.936;4.788;2023-06-14T11:33:28;12.18;;;1.60;;
47219;SDS011;32961;51.936;4.788;2023-06-14T11:35:56;5.40;;;1.52;;
47219;SDS011;32961;51.936;4.788;2023-06-14T11:38:24;4.55;;;1.70;;
47219;SDS011;32961;51.936;4.788;2023-06-14T11:40:52;2.88;;;1.55;;
47219;SDS011;32961;51.936;4.788;2023-06-14T11:43:20;7.85;;;1.40;;
47219;SDS011;32961;51.936;4.788;2023-06-14T11:45:48;6.78;;;1.40;;
47219;SDS011;32961;51.936;4.788;2023-06-14T11:48:37;1.80;;;1.25;;
47219;SDS011;32961;51.936;4.788;2023-06-14T11:51:06;1.88;;;1.33;;
47219;SDS011;32961;51.936;4.788;2023-06-14T11:53:34;4.18;;;1.77;;
47219;SDS011;32961;51.936;4.788;2023-06-14T11:56:02;9.52;;;1.50;;
47219;SDS011;32961;51.936;4.788;2023-06-14T11:58:31;1.70;;;1.33;;
47219;SDS011;32961;51.936;4.788;2023-06-14T12:01:02;5.95;;;1.50;;
47219;SDS011;32961;51.936;4.788;2023-06-14T12:03:31;3.53;;;1.30;;
47219;SDS011;32961;51.936;4.788;2023-06-14T12:06:03;4.40;;;1.98;;
47219;SDS011;32961;51.936;4.788;2023-06-14T12:08:34;3.60;;;1.60;;
47219;SDS011;32961;51.936;4.788;2023-06-14T12:11:05;5.03;;;1.42;;
47219;SDS011;32961;51.936;4.788;2023-06-14T12:13:37;3.00;;;1.30;;
47219;SDS011;32961;51.936;4.788;2023-06-14T12:16:06;8.65;;;1.50;;
47219;SDS011;32961;51.936;4.788;2023-06-14T12:18:36;9.38;;;1.52;;
47219;SDS011;32961;51.936;4.788;2023-06-14T12:21:07;2.50;;;1.35;;
47219;SDS011;32961;51.936;4.788;2023-06-14T12:23:42;5.53;;;1.35;;
47219;SDS011;32961;51.936;4.788;2023-06-14T12:26:14;7.18;;;1.55;;
47219;SDS011;32961;51.936;4.788;2023-06-14T12:28:44;3.03;;;1.40;;
47219;SDS011;32961;51.936;4.788;2023-06-14T12:31:13;6.95;;;1.50;;
47219;SDS011;32961;51.936;4.788;2023-06-14T12:33:41;3.70;;;1.25;;
47219;SDS011;32961;51.936;4.788;2023-06-14T12:36:13;3.60;;;1.63;;
47219;SDS011;32961;51.936;4.788;2023-06-14T12:38:42;3.78;;;1.30;;
47219;SDS011;32961;51.936;4.788;2023-06-14T12:41:10;4.80;;;1.48;;
47219;SDS011;32961;51.936;4.788;2023-06-14T12:43:37;2.97;;;1.75;;
47219;SDS011;32961;51.936;4.788;2023-06-14T12:46:05;2.28;;;1.75;;
47219;SDS011;32961;51.936;4.788;2023-06-14T12:48:33;2.88;;;1.50;;
47219;SDS011;32961;51.936;4.788;2023-06-14T12:51:01;7.53;;;1.40;;
47219;SDS011;32961;51.936;4.788;2023-06-14T12:53:30;1.80;;;1.30;;
47219;SDS011;32961;51.936;4.788;2023-06-14T12:55:58;9.73;;;2.22;;
47219;SDS011;32961;51.936;4.788;2023-06-14T12:58:26;7.07;;;1.52;;
47219;SDS011;32961;51.936;4.788;2023-06-14T13:00:53;3.17;;;1.67;;
47219;SDS011;32961;51.936;4.788;2023-06-14T13:03:21;2.05;;;1.35;;
47219;SDS011;32961;51.936;4.788;2023-06-14T13:05:49;2.05;;;1.27;;
47219;SDS011;32961;51.936;4.788;2023-06-14T13:08:17;3.88;;;1.60;;
47219;SDS011;32961;51.936;4.788;2023-06-14T13:10:51;5.63;;;1.83;;
47219;SDS011;32961;51.936;4.788;2023-06-14T13:13:19;2.10;;;1.38;;
47219;SDS011;32961;51.936;4.788;2023-06-14T13:15:47;3.53;;;1.70;;
47219;SDS011;32961;51.936;4.788;2023-06-14T13:18:18;8.00;;;1.52;;
47219;SDS011;32961;51.936;4.788;2023-06-14T13:20:46;2.42;;;1.45;;
47219;SDS011;32961;51.936;4.788;2023-06-14T13:23:15;3.15;;;1.60;;
47219;SDS011;32961;51.936;4.788;2023-06-14T13:25:43;6.20;;;1.50;;
47219;SDS011;32961;51.936;4.788;2023-06-14T13:28:13;8.43;;;1.42;;
47219;SDS011;32961;51.936;4.788;2023-06-14T13:30:40;13.25;;;1.65;;
47219;SDS011;32961;51.936;4.788;2023-06-14T13:33:08;6.20;;;1.85;;
47219;SDS011;32961;51.936;4.788;2023-06-14T13:35:36;6.22;;;1.55;;
47219;SDS011;32961;51.936;4.788;2023-06-14T13:38:04;7.57;;;1.60;;
47219;SDS011;32961;51.936;4.788;2023-06-14T13:40:32;3.95;;;1.50;;
47219;SDS011;32961;51.936;4.788;2023-06-14T13:42:59;3.47;;;1.60;;
47219;SDS011;32961;51.936;4.788;2023-06-14T13:45:29;8.13;;;1.88;;
47219;SDS011;32961;51.936;4.788;2023-06-14T13:47:56;3.28;;;1.73;;
47219;SDS011;32961;51.936;4.788;2023-06-14T13:50:24;3.53;;;1.50;;
47219;SDS011;32961;51.936;4.788;2023-06-14T13:52:52;6.13;;;1.30;;
47219;SDS011;32961;51.936;4.788;2023-06-14T13:55:20;1.73;;;1.40;;
47219;SDS011;32961;51.936;4.788;2023-06-14T13:57:48;2.30;;;1.15;;
47219;SDS011;32961;51.936;4.788;2023-06-14T14:00:16;6.38;;;1.30;;
47219;SDS011;32961;51.936;4.788;2023-06-14T14:02:50;6.53;;;1.63;;
47219;SDS011;32961;51.936;4.788;2023-06-14T14:05:18;3.17;;;1.50;;
47219;SDS011;32961;51.936;4.788;2023-06-14T14:07:47;5.30;;;1.85;;
47219;SDS011;32961;51.936;4.788;2023-06-14T14:10:15;5.38;;;2.80;;
47219;SDS011;32961;51.936;4.788;2023-06-14T14:12:43;6.47;;;1.50;;
47219;SDS011;32961;51.936;4.788;2023-06-14T14:15:14;8.40;;;1.45;;
47219;SDS011;32961;51.936;4.788;2023-06-14T14:17:42;7.57;;;1.35;;
47219;SDS011;32961;51.936;4.788;2023-06-14T14:20:12;2.15;;;1.30;;
47219;SDS011;32961;51.936;4.788;2023-06-14T14:22:42;8.20;;;1.40;;
47219;SDS011;32961;51.936;4.788;2023-06-14T14:25:10;4.40;;;1.48;;
47219;SDS011;32961;51.936;4.788;2023-06-14T14:27:38;5.28;;;1.30;;
47219;SDS011;32961;51.936;4.788;2023-06-14T14:30:06;1.67;;;1.38;;
47219;SDS011;32961;51.936;4.788;2023-06-14T14:32:35;2.65;;;1.27;;
47219;SDS011;32961;51.936;4.788;2023-06-14T14:35:03;7.80;;;1.27;;
47219;SDS011;32961;51.936;4.788;2023-06-14T14:37:33;5.30;;;1.40;;
47219;SDS011;32961;51.936;4.788;2023-06-14T14:40:01;4.68;;;1.35;;
47219;SDS011;32961;51.936;4.788;2023-06-14T14:42:30;6.38;;;1.40;;
47219;SDS011;32961;51.936;4.788;2023-06-14T14:44:58;2.35;;;1.40;;
47219;SDS011;32961;51.936;4.788;2023-06-14T14:47:26;4.13;;;1.60;;
47219;SDS011;32961;51.936;4.788;2023-06-14T14:49:53;3.88;;;1.75;;
47219;SDS011;32961;51.936;4.788;2023-06-14T14:52:21;6.50;;;1.48;;
47219;SDS011;32961;51.936;4.788;2023-06-14T14:54:51;9.85;;;3.03;;
47219;SDS011;32961;51.936;4.788;2023-06-14T14:57:20;2.22;;;1.60;;
47219;SDS011;32961;51.936;4.788;2023-06-14T14:59:48;4.63;;;1.38;;
47219;SDS011;32961;51.936;4.788;2023-06-14T15:02:16;6.68;;;1.80;;
47219;SDS011;32961;51.936;4.788;2023-06-14T15:04:44;3.42;;;1.35;;